Flugplatz Leer-Papenburg

METAR ETNT TAF EHGG
4 °C
°C
-
°C
40m
Idade
15:59:46
LT
14:59
UTC
0 ft

1.000

2.000

3.000

4.000

5.000

VFR
<?= Yii::t('app', 'Wind direction') ?> <?= Yii::t('app', 'of'); ?>
180°
17:22
Pôr-do-sol
65%
Humidade
Tesoura de Vento
Fechado/Neve
Alcance visual RWY
Condição RWY
Vert. visibilidade
Min. visibilidade
CAVOK
Tendência
Correcção
Relatório especial
1040 hPa
QNH
METAR ETNT 071420Z 18004KT 9999 04/M02 Q1040 BLACKBLU+
Claro
4 kt
4 kt
15:00
VFR
5 kt
16:00
VFR
5 kt
17:00
VFR
5 kt
18:00
VFR
5 kt
19:00
VFR
5 kt
20:00
VFR
5 kt
21:00
VFR
5 kt
10 km+
Visibilidade
Nenhum
Tecto
4 kt
Vento
metar-taf.com/EDWF

Metar-Taf.com

Decodificador visual

Nós e terceiros acompanhamos seu comportamento na internet em nosso site com cookies. Se você continuar, nós assumimos que você concorda com nosso política de cookies.